Time;durP1;ratioP1;P1;durP2;ratioP2;P2;SDS_P1;SDS_P2;PMS_P1;PMS_P2;Temp;Humidity;BMP_temperature;BMP_pressure;BME280_temperature;BME280_humidity;BME280_pressure;Samples;Min_cycle;Max_cycle;Signal;HPM_P1;HPM_P2
2023/09/02 04:31:36;;;;;;;0.05;0.05;;;18.70;85.80;;;;;;5351529;23;20051;-77
2023/09/02 04:34:02;;;;;;;0.10;0.05;;;18.70;85.90;;;;;;4964369;28;20031;-78
2023/09/02 04:36:29;;;;;;;0.00;0.00;;;18.70;85.80;;;;;;4967501;28;20591;-78
2023/09/02 04:38:54;;;;;;;0.20;0.10;;;18.70;85.70;;;;;;4957039;29;20031;-78
2023/09/02 04:41:20;;;;;;;0.10;0.00;;;18.80;85.70;;;;;;4969600;28;20382;-78
2023/09/02 04:43:46;;;;;;;0.05;0.05;;;18.70;85.60;;;;;;4976158;28;20500;-77
2023/09/02 04:46:11;;;;;;;0.22;0.10;;;18.70;85.70;;;;;;4938465;28;20091;-78
2023/09/02 04:48:37;;;;;;;0.00;0.00;;;18.70;85.70;;;;;;4926205;28;20030;-78
2023/09/02 04:51:03;;;;;;;0.05;0.05;;;18.70;85.70;;;;;;4963551;28;20482;-78
2023/09/02 04:53:29;;;;;;;0.00;0.00;;;18.70;85.70;;;;;;4941068;29;20078;-78
2023/09/02 04:55:55;;;;;;;0.10;0.10;;;18.70;85.90;;;;;;4959549;29;20036;-78
2023/09/02 04:58:23;;;;;;;0.00;0.00;;;18.70;85.80;;;;;;4959605;29;20042;-78
2023/09/02 05:00:49;;;;;;;0.00;0.00;;;18.70;85.90;;;;;;4957471;29;20030;-78
2023/09/02 05:03:15;;;;;;;0.00;0.00;;;18.70;85.90;;;;;;4960027;29;20095;-78
2023/09/02 05:05:41;;;;;;;0.10;0.10;;;18.70;85.90;;;;;;4960652;28;20074;-77
2023/09/02 05:08:06;;;;;;;0.10;0.10;;;18.80;85.90;;;;;;4960101;29;20514;-78
2023/09/02 05:10:32;;;;;;;0.63;0.10;;;18.80;85.90;;;;;;4960145;29;20035;-78
2023/09/02 05:12:58;;;;;;;0.05;0.05;;;18.80;85.90;;;;;;4959307;29;20245;-78
2023/09/02 05:15:24;;;;;;;0.08;0.08;;;18.80;85.80;;;;;;4960023;29;20031;-77
2023/09/02 05:17:50;;;;;;;0.00;0.00;;;18.80;85.80;;;;;;4941855;29;20031;-78
2023/09/02 05:20:15;;;;;;;0.00;0.00;;;18.80;85.70;;;;;;4960106;29;20122;-77
2023/09/02 05:22:41;;;;;;;0.00;0.00;;;18.80;85.80;;;;;;4959840;29;20031;-78
2023/09/02 05:25:07;;;;;;;0.10;0.10;;;18.80;85.70;;;;;;4959751;29;20038;-77
2023/09/02 05:27:33;;;;;;;0.10;0.10;;;18.80;85.70;;;;;;4938915;29;20423;-77
2023/09/02 05:29:59;;;;;;;0.00;0.00;;;18.90;85.70;;;;;;4940663;29;20031;-77
2023/09/02 05:32:25;;;;;;;0.00;0.00;;;18.90;85.70;;;;;;4952208;29;20051;-77
2023/09/02 05:34:51;;;;;;;0.10;0.10;;;18.90;85.60;;;;;;4959657;29;20110;-77
2023/09/02 05:37:16;;;;;;;0.08;0.08;;;18.90;85.60;;;;;;4959713;29;20485;-78
2023/09/02 05:39:42;;;;;;;0.10;0.10;;;19.00;85.60;;;;;;4961558;28;20020;-77
2023/09/02 05:42:08;;;;;;;0.20;0.10;;;19.00;85.60;;;;;;4965639;28;20027;-77
2023/09/02 05:44:37;;;;;;;0.00;0.00;;;18.90;85.60;;;;;;4959589;29;20074;-78
2023/09/02 05:47:03;;;;;;;0.00;0.00;;;19.00;85.60;;;;;;4958636;29;20050;-78
2023/09/02 05:49:29;;;;;;;0.00;0.00;;;19.00;85.60;;;;;;4959439;29;20082;-78
2023/09/02 05:51:55;;;;;;;0.00;0.00;;;19.00;85.60;;;;;;4955994;29;20016;-79
2023/09/02 05:54:21;;;;;;;0.00;0.00;;;19.00;85.70;;;;;;4959331;29;20031;-78
2023/09/02 05:56:47;;;;;;;0.00;0.00;;;19.00;85.60;;;;;;4959054;29;20144;-78
2023/09/02 05:59:13;;;;;;;0.00;0.00;;;19.00;85.60;;;;;;4955821;29;20027;-78
2023/09/02 06:01:39;;;;;;;0.00;0.00;;;19.00;85.60;;;;;;4940550;29;20114;-78
2023/09/02 06:04:05;;;;;;;0.00;0.00;;;19.00;85.60;;;;;;4958606;28;20027;-78
2023/09/02 06:06:31;;;;;;;0.00;0.00;;;19.10;85.60;;;;;;4956528;29;20041;-78
2023/09/02 06:08:56;;;;;;;0.00;0.00;;;19.00;85.70;;;;;;4940566;29;20027;-79
2023/09/02 06:11:22;;;;;;;0.00;0.00;;;19.10;85.70;;;;;;4958551;28;20023;-78
2023/09/02 06:13:47;;;;;;;0.00;0.00;;;19.10;85.80;;;;;;4960023;28;20026;-77
2023/09/02 06:16:13;;;;;;;0.00;0.00;;;19.10;85.70;;;;;;4968670;28;20023;-77
2023/09/02 06:18:39;;;;;;;0.00;0.00;;;19.10;85.60;;;;;;4949596;28;20015;-79
2023/09/02 06:21:12;;;;;;;0.00;0.00;;;19.10;85.60;;;;;;4951417;28;20023;-78
2023/09/02 06:23:40;;;;;;;0.00;0.00;;;19.10;85.60;;;;;;4967582;28;20757;-78
2023/09/02 06:26:06;;;;;;;0.00;0.00;;;19.10;85.50;;;;;;4949857;28;20050;-78
2023/09/02 06:28:33;;;;;;;0.10;0.10;;;19.20;85.50;;;;;;4973501;28;20030;-77
2023/09/02 06:31:03;;;;;;;0.00;0.00;;;19.20;85.40;;;;;;4958205;29;20046;-78
2023/09/02 06:33:29;;;;;;;0.00;0.00;;;19.10;85.30;;;;;;4941214;29;20029;-77
2023/09/02 06:35:55;;;;;;;0.00;0.00;;;19.10;85.30;;;;;;4941387;29;20126;-77
2023/09/02 06:38:20;;;;;;;0.00;0.00;;;19.10;85.20;;;;;;4940996;29;20053;-79
2023/09/02 06:40:46;;;;;;;0.00;0.00;;;19.10;85.20;;;;;;4951229;28;20081;-78
2023/09/02 06:43:12;;;;;;;0.00;0.00;;;19.20;85.10;;;;;;4977763;28;20472;-79
2023/09/02 06:45:37;;;;;;;0.00;0.00;;;19.20;85.00;;;;;;4938055;29;20047;-79
2023/09/02 06:48:03;;;;;;;0.10;0.10;;;19.30;84.90;;;;;;4939035;29;20439;-78
2023/09/02 06:50:29;;;;;;;0.08;0.08;;;19.30;84.70;;;;;;4939010;29;20039;-78
2023/09/02 06:52:54;;;;;;;0.00;0.00;;;19.30;84.50;;;;;;4947887;28;20034;-78
2023/09/02 06:55:20;;;;;;;0.10;0.08;;;19.40;84.40;;;;;;4946958;29;20503;-78
2023/09/02 06:57:46;;;;;;;0.08;0.08;;;19.60;84.20;;;;;;4949370;29;20047;-78
2023/09/02 07:00:12;;;;;;;0.10;0.10;;;19.70;83.80;;;;;;4949096;29;20405;-78
2023/09/02 07:02:38;;;;;;;0.00;0.00;;;19.80;83.50;;;;;;4946994;29;20023;-77
2023/09/02 07:05:05;;;;;;;0.00;0.00;;;19.90;83.30;;;;;;4939462;29;20063;-77
2023/09/02 07:07:31;;;;;;;0.00;0.00;;;19.90;82.70;;;;;;4941266;29;20043;-77
2023/09/02 07:09:57;;;;;;;0.00;0.00;;;19.90;82.50;;;;;;4943489;28;20409;-77
2023/09/02 07:12:24;;;;;;;0.00;0.00;;;19.90;82.40;;;;;;4947620;29;20087;-77
2023/09/02 07:14:49;;;;;;;0.05;0.05;;;19.80;82.40;;;;;;4946135;29;20031;-79
2023/09/02 07:17:15;;;;;;;0.00;0.00;;;19.80;82.30;;;;;;4938562;29;20019;-76
2023/09/02 07:19:40;;;;;;;0.10;0.10;;;19.80;82.50;;;;;;4943273;29;20455;-76
2023/09/02 07:22:06;;;;;;;0.00;0.00;;;19.80;82.50;;;;;;4950369;28;20039;-77
2023/09/02 07:24:32;;;;;;;0.00;0.00;;;19.80;82.50;;;;;;4955852;28;20035;-77
2023/09/02 07:26:57;;;;;;;0.00;0.00;;;19.70;82.50;;;;;;4953873;28;20040;-77
2023/09/02 07:29:23;;;;;;;0.05;0.05;;;19.80;82.50;;;;;;4952240;28;21747;-77
2023/09/02 07:31:49;;;;;;;0.10;0.10;;;19.80;82.30;;;;;;4953627;28;20118;-77
2023/09/02 07:34:14;;;;;;;0.00;0.00;;;19.90;82.20;;;;;;4953938;28;20062;-77
2023/09/02 07:36:42;;;;;;;0.10;0.10;;;20.00;82.00;;;;;;4936081;29;20039;-77
2023/09/02 07:39:07;;;;;;;0.05;0.05;;;20.00;82.10;;;;;;4950821;28;20112;-77
2023/09/02 07:41:33;;;;;;;0.00;0.00;;;20.10;81.90;;;;;;4934824;28;20442;-78
2023/09/02 07:43:59;;;;;;;0.00;0.00;;;20.10;81.70;;;;;;4938695;28;20425;-77
2023/09/02 07:46:24;;;;;;;0.00;0.00;;;20.10;81.80;;;;;;4950736;28;20391;-77
2023/09/02 07:48:50;;;;;;;0.00;0.00;;;20.20;81.70;;;;;;4938374;29;20023;-77
2023/09/02 07:51:17;;;;;;;0.00;0.00;;;20.20;81.50;;;;;;4937489;29;20058;-77
2023/09/02 07:53:43;;;;;;;0.00;0.00;;;20.30;81.40;;;;;;4933286;28;20023;-78
2023/09/02 07:56:09;;;;;;;0.03;0.03;;;20.30;81.50;;;;;;4944514;28;20031;-78
2023/09/02 07:58:35;;;;;;;0.00;0.00;;;20.30;81.20;;;;;;4933568;29;20024;-77
2023/09/02 08:01:02;;;;;;;0.00;0.00;;;20.40;81.10;;;;;;4935155;29;20078;-78
2023/09/02 08:03:27;;;;;;;0.10;0.10;;;20.60;80.80;;;;;;4947145;28;20028;-78
2023/09/02 08:05:53;;;;;;;0.00;0.00;;;20.80;80.40;;;;;;4949831;28;20031;-78
2023/09/02 08:08:19;;;;;;;0.00;0.00;;;20.90;80.10;;;;;;4950357;28;20027;-79
2023/09/02 08:10:44;;;;;;;0.00;0.00;;;21.20;79.40;;;;;;4949774;28;20036;-77
2023/09/02 08:13:10;;;;;;;0.00;0.00;;;21.30;78.70;;;;;;4949861;28;20049;-77
2023/09/02 08:15:39;;;;;;;0.00;0.00;;;21.30;78.20;;;;;;4935556;28;20027;-77
2023/09/02 08:18:06;;;;;;;0.10;0.10;;;21.40;78.40;;;;;;4950644;28;20541;-77
2023/09/02 08:20:31;;;;;;;0.00;0.00;;;21.30;77.90;;;;;;4949245;28;20043;-77
2023/09/02 08:22:58;;;;;;;0.00;0.00;;;21.10;78.40;;;;;;4924144;28;20039;-76
2023/09/02 08:25:23;;;;;;;0.00;0.00;;;20.80;78.90;;;;;;4942620;28;20039;-77
2023/09/02 08:27:49;;;;;;;0.00;0.00;;;20.60;79.60;;;;;;4946785;28;20454;-79
2023/09/02 08:30:15;;;;;;;0.00;0.00;;;20.60;79.80;;;;;;4951837;29;20035;-78
2023/09/02 08:32:41;;;;;;;0.10;0.10;;;21.00;79.50;;;;;;4943160;29;20514;-80
2023/09/02 08:35:08;;;;;;;0.10;0.10;;;21.50;78.70;;;;;;4958549;29;20078;-79
2023/09/02 08:37:34;;;;;;;0.08;0.08;;;21.60;77.90;;;;;;4960898;29;20094;-77
2023/09/02 08:40:01;;;;;;;0.10;0.10;;;21.70;76.90;;;;;;4964018;28;20023;-77
2023/09/02 08:42:27;;;;;;;0.00;0.00;;;21.90;77.20;;;;;;4976884;28;20039;-83
2023/09/02 08:44:57;;;;;;;0.20;0.20;;;22.80;75.10;;;;;;4956736;29;20055;-83
2023/09/02 08:47:27;;;;;;;0.10;0.10;;;23.30;73.80;;;;;;4950064;29;20146;-81
2023/09/02 08:49:57;;;;;;;0.10;0.10;;;24.20;71.30;;;;;;4936584;29;20030;-80
2023/09/02 08:52:24;;;;;;;0.00;0.00;;;24.20;70.70;;;;;;4934844;29;20035;-80
2023/09/02 08:54:50;;;;;;;0.00;0.00;;;23.80;70.90;;;;;;4952630;28;20051;-77
2023/09/02 08:57:17;;;;;;;0.00;0.00;;;23.40;71.60;;;;;;4950827;28;20409;-77
2023/09/02 08:59:43;;;;;;;0.00;0.00;;;23.10;72.30;;;;;;4941319;29;20031;-77
2023/09/02 09:02:12;;;;;;;0.00;0.00;;;22.90;73.20;;;;;;4951357;29;20031;-77
2023/09/02 09:04:38;;;;;;;0.03;0.03;;;22.70;74.20;;;;;;4940246;29;20529;-77
2023/09/02 09:07:05;;;;;;;0.00;0.00;;;22.60;74.40;;;;;;4940976;29;20039;-77
2023/09/02 09:09:36;;;;;;;0.00;0.00;;;22.80;74.30;;;;;;4948688;29;20410;-78
2023/09/02 09:12:06;;;;;;;0.00;0.00;;;23.00;73.60;;;;;;4951405;29;20027;-77
2023/09/02 09:14:35;;;;;;;0.00;0.00;;;23.30;73.30;;;;;;4948737;29;20028;-78
2023/09/02 09:17:01;;;;;;;0.00;0.00;;;23.30;73.00;;;;;;4951966;29;20026;-78
2023/09/02 09:19:30;;;;;;;0.00;0.00;;;23.40;72.90;;;;;;4949494;28;20027;-78
2023/09/02 09:21:57;;;;;;;0.00;0.00;;;23.30;72.60;;;;;;4951273;29;20459;-78
2023/09/02 09:24:23;;;;;;;0.10;0.10;;;23.30;73.00;;;;;;4951592;29;20114;-78
2023/09/02 09:26:50;;;;;;;0.10;0.10;;;23.30;72.90;;;;;;4951016;29;20027;-78
2023/09/02 09:29:17;;;;;;;0.00;0.00;;;23.40;73.00;;;;;;4947949;28;20648;-78
2023/09/02 09:31:44;;;;;;;0.00;0.00;;;23.50;72.70;;;;;;4946792;29;20043;-77
2023/09/02 09:34:10;;;;;;;0.00;0.00;;;23.50;72.10;;;;;;4926405;29;20031;-78
2023/09/02 09:36:36;;;;;;;0.10;0.10;;;23.40;72.60;;;;;;4951016;28;20067;-78
2023/09/02 09:39:06;;;;;;;0.00;0.00;;;23.30;72.60;;;;;;4953002;28;20031;-78
2023/09/02 09:41:33;;;;;;;0.00;0.00;;;23.30;73.20;;;;;;4937984;29;20135;-77
2023/09/02 09:44:12;;;;;;;0.00;0.00;;;23.30;73.20;;;;;;4940215;29;20062;-78
2023/09/02 09:46:43;;;;;;;0.00;0.00;;;23.30;73.30;;;;;;4929139;29;20114;-78
2023/09/02 09:49:22;;;;;;;0.00;0.00;;;23.30;73.00;;;;;;4955675;29;20042;-78
2023/09/02 09:52:01;;;;;;;0.00;0.00;;;23.30;73.30;;;;;;4946156;29;20032;-77
2023/09/02 09:54:41;;;;;;;0.00;0.00;;;23.30;73.40;;;;;;4947517;29;20034;-77
2023/09/02 09:57:13;;;;;;;0.08;0.08;;;23.30;73.70;;;;;;4948135;29;20051;-77
2023/09/02 09:59:48;;;;;;;0.00;0.00;;;23.50;73.80;;;;;;4950567;29;20039;-78
2023/09/02 10:02:17;;;;;;;0.00;0.00;;;23.40;73.00;;;;;;4946619;29;20107;-77
2023/09/02 10:04:53;;;;;;;0.00;0.00;;;23.40;73.50;;;;;;4951629;28;20395;-77
2023/09/02 10:07:23;;;;;;;0.00;0.00;;;23.50;73.10;;;;;;4944855;29;20031;-77
2023/09/02 10:09:49;;;;;;;0.00;0.00;;;23.50;73.50;;;;;;4952635;29;20035;-80
2023/09/02 10:12:16;;;;;;;0.00;0.00;;;23.60;73.10;;;;;;4932845;29;20066;-78
2023/09/02 10:14:46;;;;;;;0.00;0.00;;;23.40;73.40;;;;;;4952918;29;20102;-78
2023/09/02 10:17:12;;;;;;;0.00;0.00;;;23.30;74.00;;;;;;4946072;28;20039;-82
2023/09/02 10:19:38;;;;;;;0.00;0.00;;;23.40;73.40;;;;;;4935836;29;20111;-83
2023/09/02 10:22:05;;;;;;;0.00;0.00;;;23.50;73.50;;;;;;4947470;29;20051;-79
2023/09/02 10:24:44;;;;;;;0.00;0.00;;;23.70;73.40;;;;;;4944552;29;20035;-78
2023/09/02 10:27:18;;;;;;;0.03;0.03;;;23.70;72.40;;;;;;4948432;29;20391;-79
2023/09/02 10:29:46;;;;;;;0.00;0.00;;;23.80;72.80;;;;;;4940003;29;20091;-79
2023/09/02 10:32:12;;;;;;;0.00;0.00;;;23.70;72.20;;;;;;4930076;29;20399;-80
2023/09/02 10:35:08;;;;;;;0.00;0.00;;;23.80;72.90;;;;;;4947266;29;20120;-81
2023/09/02 10:37:53;;;;;;;0.03;0.03;;;23.90;72.10;;;;;;4951639;29;20086;-79
2023/09/02 10:40:37;;;;;;;0.03;0.03;;;23.80;72.10;;;;;;4946535;28;20131;-79
2023/09/02 10:43:03;;;;;;;0.00;0.00;;;24.00;72.30;;;;;;4950470;29;20042;-80
2023/09/02 10:45:31;;;;;;;0.00;0.00;;;24.30;71.70;;;;;;4931489;29;20032;-77
2023/09/02 10:47:57;;;;;;;0.00;0.00;;;24.40;71.10;;;;;;4952565;29;20039;-79
2023/09/02 10:50:23;;;;;;;0.00;0.00;;;24.40;70.60;;;;;;4947456;29;20027;-79
2023/09/02 10:52:53;;;;;;;0.10;0.10;;;24.40;70.00;;;;;;4944843;29;20023;-78
2023/09/02 10:55:21;;;;;;;0.10;0.10;;;24.50;70.20;;;;;;4925314;29;20043;-77
2023/09/02 10:57:50;;;;;;;0.10;0.10;;;24.50;70.60;;;;;;4926424;29;20094;-79
2023/09/02 11:00:24;;;;;;;0.10;0.10;;;24.60;70.40;;;;;;4960875;29;20023;-77
2023/09/02 11:02:58;;;;;;;0.00;0.00;;;24.80;70.00;;;;;;4956907;29;20038;-76
2023/09/02 11:05:26;;;;;;;0.00;0.00;;;24.90;69.20;;;;;;4940774;29;20029;-75
2023/09/02 11:07:53;;;;;;;0.00;0.00;;;24.90;69.70;;;;;;4958405;29;20031;-75
2023/09/02 11:10:19;;;;;;;0.00;0.00;;;24.70;70.30;;;;;;4956849;29;20035;-75
2023/09/02 11:13:00;;;;;;;0.10;0.10;;;24.30;69.90;;;;;;4956104;29;20042;-74
2023/09/02 11:15:29;;;;;;;0.10;0.10;;;24.40;70.90;;;;;;4956318;29;20020;-75
2023/09/02 11:17:56;;;;;;;0.08;0.08;;;24.70;70.60;;;;;;4956276;29;20055;-75
2023/09/02 11:20:26;;;;;;;0.00;0.00;;;25.00;70.00;;;;;;4957563;29;20054;-77
2023/09/02 11:22:54;;;;;;;0.00;0.00;;;25.10;69.80;;;;;;4957262;29;20034;-77
2023/09/02 11:25:27;;;;;;;0.10;0.10;;;25.00;69.30;;;;;;4957498;29;20090;-76
2023/09/02 11:27:55;;;;;;;;;;;25.00;69.70;;;;;;4957169;29;20027;-76
2023/09/02 11:30:25;;;;;;;0.00;0.00;;;25.00;70.00;;;;;;4939979;29;20053;-75
2023/09/02 11:32:52;;;;;;;0.00;0.00;;;25.00;69.20;;;;;;4939880;29;20034;-84
2023/09/02 11:35:29;;;;;;;0.00;0.00;;;24.90;69.50;;;;;;4940539;29;20055;-80
2023/09/02 11:37:55;;;;;;;0.00;0.00;;;24.80;69.80;;;;;;4956884;29;20023;-83
2023/09/02 11:40:24;;;;;;;0.00;0.00;;;24.60;70.30;;;;;;4955173;28;20058;-91
2023/09/02 11:43:00;;;;;;;0.00;0.00;;;24.60;70.20;;;;;;4956840;28;20031;-82
2023/09/02 11:45:33;;;;;;;0.00;0.00;;;24.60;70.30;;;;;;4936376;29;20402;-75
2023/09/02 11:47:58;;;;;;;0.00;0.00;;;24.60;70.30;;;;;;4934811;29;20031;-75
2023/09/02 11:50:24;;;;;;;0.00;0.00;;;24.60;70.30;;;;;;4940631;29;20482;-74
2023/09/02 11:52:55;;;;;;;0.00;0.00;;;24.60;70.40;;;;;;4935749;28;20110;-75
2023/09/02 11:55:22;;;;;;;0.00;0.00;;;24.50;70.50;;;;;;4941944;28;20031;-74
2023/09/02 11:57:47;;;;;;;0.00;0.00;;;24.40;70.90;;;;;;4928731;28;21593;-75
2023/09/02 12:00:18;;;;;;;0.00;0.00;;;24.30;71.00;;;;;;4944209;28;20106;-75
2023/09/02 12:02:45;;;;;;;0.00;0.00;;;24.20;71.10;;;;;;4950758;28;20033;-74
2023/09/02 12:05:11;;;;;;;0.00;0.00;;;24.10;71.70;;;;;;4954292;28;20051;-74
2023/09/02 12:07:38;;;;;;;0.00;0.00;;;24.10;72.10;;;;;;4961208;28;20079;-74
2023/09/02 12:10:12;;;;;;;0.00;0.00;;;24.20;72.10;;;;;;4948871;28;20034;-80
2023/09/02 12:12:43;;;;;;;0.00;0.00;;;24.30;72.20;;;;;;4955236;28;20563;-75
2023/09/02 12:15:14;;;;;;;0.00;0.00;;;24.30;72.10;;;;;;4964364;28;20503;-75
2023/09/02 12:17:40;;;;;;;0.00;0.00;;;24.40;72.10;;;;;;4966058;28;20027;-75
2023/09/02 12:20:07;;;;;;;0.00;0.00;;;24.50;71.70;;;;;;4965900;28;20035;-74
2023/09/02 12:22:35;;;;;;;0.03;0.03;;;24.70;71.50;;;;;;4966278;28;20494;-75
2023/09/02 12:25:13;;;;;;;0.00;0.00;;;24.80;70.90;;;;;;4961765;28;20090;-75
2023/09/02 12:27:39;;;;;;;0.00;0.00;;;24.80;70.70;;;;;;4963946;28;20375;-74
2023/09/02 12:30:06;;;;;;;0.00;0.00;;;24.70;71.40;;;;;;4964339;28;20064;-75
2023/09/02 12:32:31;;;;;;;0.00;0.00;;;24.60;71.30;;;;;;4964102;28;20067;-75
2023/09/02 12:34:57;;;;;;;0.00;0.00;;;24.70;70.80;;;;;;4945340;29;20086;-74
2023/09/02 12:37:24;;;;;;;0.00;0.00;;;24.70;70.90;;;;;;4952588;28;20035;-74
2023/09/02 12:39:50;;;;;;;0.00;0.00;;;24.60;70.40;;;;;;4937496;28;20035;-74
2023/09/02 12:42:26;;;;;;;0.00;0.00;;;24.70;70.70;;;;;;4951282;29;20414;-74
2023/09/02 12:44:57;;;;;;;0.00;0.00;;;24.70;71.00;;;;;;4936348;28;20042;-74
2023/09/02 12:47:24;;;;;;;0.00;0.00;;;24.60;70.70;;;;;;4953883;29;20502;-75
2023/09/02 12:49:55;;;;;;;0.00;0.00;;;24.50;71.40;;;;;;4953591;29;20118;-74
2023/09/02 12:52:23;;;;;;;0.00;0.00;;;24.60;71.70;;;;;;4952010;28;20029;-74
2023/09/02 12:55:00;;;;;;;0.00;0.00;;;24.50;71.80;;;;;;4958367;29;20030;-74
2023/09/02 12:57:30;;;;;;;0.00;0.00;;;24.60;71.40;;;;;;4958858;28;20034;-74
2023/09/02 12:59:56;;;;;;;0.05;0.05;;;24.50;72.00;;;;;;4937865;29;20087;-74
2023/09/02 13:02:24;;;;;;;0.00;0.00;;;24.60;71.80;;;;;;4942172;29;20027;-74
2023/09/02 13:04:49;;;;;;;0.00;0.00;;;24.70;71.10;;;;;;4941832;29;20043;-74
2023/09/02 13:07:19;;;;;;;0.00;0.00;;;24.80;70.80;;;;;;4953412;29;20376;-74
2023/09/02 13:09:46;;;;;;;0.00;0.00;;;25.00;70.80;;;;;;4954476;29;20035;-75
2023/09/02 13:12:12;;;;;;;0.00;0.00;;;25.00;70.40;;;;;;4955903;28;20104;-74
2023/09/02 13:14:38;;;;;;;0.00;0.00;;;24.90;70.60;;;;;;4951000;29;20035;-74
2023/09/02 13:17:04;;;;;;;0.00;0.00;;;25.00;71.00;;;;;;4950285;29;20030;-74
2023/09/02 13:19:30;;;;;;;0.00;0.00;;;24.90;71.10;;;;;;4952720;29;20118;-74
2023/09/02 13:21:56;;;;;;;0.00;0.00;;;24.80;71.30;;;;;;4948903;29;20023;-74
2023/09/02 13:24:24;;;;;;;0.00;0.00;;;24.80;71.60;;;;;;4954640;29;20019;-74
2023/09/02 13:26:50;;;;;;;0.00;0.00;;;24.80;71.40;;;;;;4941091;29;20031;-74
2023/09/02 13:29:17;;;;;;;0.00;0.00;;;24.70;70.60;;;;;;4950426;29;20079;-74
2023/09/02 13:31:46;;;;;;;0.00;0.00;;;24.60;70.30;;;;;;4948758;29;20095;-75
2023/09/02 13:34:28;;;;;;;0.00;0.00;;;24.50;70.80;;;;;;4945191;28;20023;-74
2023/09/02 13:37:16;;;;;;;0.00;0.00;;;24.70;70.50;;;;;;4946246;29;20400;-74
2023/09/02 13:39:41;;;;;;;0.00;0.00;;;24.70;70.80;;;;;;4950782;29;20545;-74
2023/09/02 13:42:16;;;;;;;0.00;0.00;;;24.60;70.70;;;;;;4941282;29;20082;-75
2023/09/02 13:44:42;;;;;;;0.00;0.00;;;24.70;71.20;;;;;;4941861;29;20031;-74
2023/09/02 13:47:08;;;;;;;0.03;0.03;;;24.70;71.00;;;;;;4956236;28;20027;-74
2023/09/02 13:49:34;;;;;;;0.05;0.05;;;24.70;71.10;;;;;;4955222;29;20034;-75
2023/09/02 13:52:02;;;;;;;0.00;0.00;;;25.00;71.20;;;;;;4954147;28;20030;-74
2023/09/02 13:54:27;;;;;;;0.08;0.08;;;25.30;69.90;;;;;;4949430;29;20038;-74
2023/09/02 13:56:54;;;;;;;0.00;0.00;;;25.40;68.80;;;;;;4945679;29;20032;-74
2023/09/02 13:59:23;;;;;;;0.00;0.00;;;25.50;68.30;;;;;;4938889;28;20090;-74
2023/09/02 14:01:49;;;;;;;0.00;0.00;;;25.50;68.00;;;;;;4934727;28;20027;-74
2023/09/02 14:04:16;;;;;;;0.00;0.00;;;25.50;68.00;;;;;;4949879;28;20110;-74
2023/09/02 14:06:41;;;;;;;0.00;0.00;;;25.40;68.40;;;;;;4950901;28;20447;-74
2023/09/02 14:09:23;;;;;;;0.00;0.00;;;25.30;68.90;;;;;;4938155;28;20031;-74
2023/09/02 14:11:52;;;;;;;0.00;0.00;;;25.50;69.20;;;;;;4950469;28;20039;-74
2023/09/02 14:14:21;;;;;;;0.00;0.00;;;25.50;68.70;;;;;;4951601;28;20031;-74
2023/09/02 14:16:50;;;;;;;0.00;0.00;;;25.60;68.70;;;;;;4946945;28;21306;-74
2023/09/02 14:19:16;;;;;;;0.00;0.00;;;25.40;68.60;;;;;;4946895;29;20086;-74
2023/09/02 14:21:42;;;;;;;0.00;0.00;;;25.20;69.00;;;;;;4936574;29;20042;-74
2023/09/02 14:24:08;;;;;;;0.00;0.00;;;25.30;69.30;;;;;;4939294;29;20811;-74
2023/09/02 14:26:34;;;;;;;0.00;0.00;;;25.70;68.20;;;;;;4954083;28;20038;-74
2023/09/02 14:28:59;;;;;;;0.00;0.00;;;25.60;67.70;;;;;;4942715;29;20545;-74
2023/09/02 14:31:25;;;;;;;0.00;0.00;;;25.60;68.00;;;;;;4941558;29;20047;-74
2023/09/02 14:33:51;;;;;;;0.00;0.00;;;25.50;67.50;;;;;;4937840;29;20019;-74
2023/09/02 14:36:17;;;;;;;0.00;0.00;;;25.30;68.00;;;;;;4923183;29;20496;-74
2023/09/02 14:38:43;;;;;;;0.00;0.00;;;25.50;68.60;;;;;;4939274;29;20102;-74
2023/09/02 14:41:10;;;;;;;0.00;0.00;;;25.70;68.60;;;;;;4931303;29;20035;-74
2023/09/02 14:43:35;;;;;;;0.10;0.10;;;25.80;68.80;;;;;;4950178;29;20051;-75
2023/09/02 14:46:01;;;;;;;0.03;0.03;;;25.80;67.80;;;;;;4947847;29;20494;-75
2023/09/02 14:48:27;;;;;;;0.00;0.00;;;25.80;67.10;;;;;;4940565;29;20027;-75
2023/09/02 14:50:53;;;;;;;0.00;0.00;;;25.90;68.10;;;;;;4939626;29;20031;-78
2023/09/02 14:53:18;;;;;;;0.00;0.00;;;25.90;68.30;;;;;;4947528;28;20019;-78
2023/09/02 14:55:50;;;;;;;0.00;0.00;;;25.90;67.70;;;;;;4949834;29;20103;-77
2023/09/02 14:58:16;;;;;;;0.00;0.00;;;26.00;67.90;;;;;;4944382;29;20026;-81
2023/09/02 15:00:43;;;;;;;0.00;0.00;;;25.70;67.30;;;;;;4935180;29;20035;-80
2023/09/02 15:03:19;;;;;;;0.00;0.00;;;25.50;68.10;;;;;;4940839;29;20028;-78
2023/09/02 15:05:45;;;;;;;0.00;0.00;;;25.50;68.10;;;;;;4955772;29;20031;-79
2023/09/02 15:08:11;;;;;;;0.00;0.00;;;25.60;68.10;;;;;;4950589;29;20035;-80
2023/09/02 15:10:36;;;;;;;0.00;0.00;;;25.60;67.90;;;;;;4945770;29;20035;-78
2023/09/02 15:13:03;;;;;;;0.00;0.00;;;25.70;68.00;;;;;;4952600;29;20019;-84
2023/09/02 15:15:37;;;;;;;0.00;0.00;;;25.70;67.90;;;;;;4946413;28;20019;-78
2023/09/02 15:18:05;;;;;;;0.00;0.00;;;25.70;66.70;;;;;;4947378;28;20032;-78
2023/09/02 15:20:30;;;;;;;0.00;0.00;;;25.70;67.20;;;;;;4935140;28;20027;-78
2023/09/02 15:22:56;;;;;;;0.00;0.00;;;25.80;67.30;;;;;;4947629;28;20039;-78
2023/09/02 15:25:26;;;;;;;0.00;0.00;;;25.70;66.90;;;;;;4951771;28;20030;-78
2023/09/02 15:27:56;;;;;;;0.00;0.00;;;25.40;67.20;;;;;;4951865;28;20105;-77
2023/09/02 15:30:29;;;;;;;0.00;0.00;;;25.10;67.80;;;;;;4948928;28;20034;-77
2023/09/02 15:32:55;;;;;;;0.00;0.00;;;24.90;68.50;;;;;;4944694;28;20034;-78
2023/09/02 15:35:21;;;;;;;0.00;0.00;;;24.80;68.90;;;;;;4948252;28;20035;-78
2023/09/02 15:37:47;;;;;;;0.00;0.00;;;24.90;69.10;;;;;;4939416;29;20031;-77
2023/09/02 15:40:13;;;;;;;0.00;0.00;;;25.00;68.70;;;;;;4951171;28;20125;-78
2023/09/02 15:42:40;;;;;;;0.00;0.00;;;25.10;68.30;;;;;;4937970;29;20038;-77
2023/09/02 15:45:06;;;;;;;0.00;0.00;;;25.20;68.20;;;;;;4937179;29;20031;-77
2023/09/02 15:47:31;;;;;;;0.00;0.00;;;25.00;68.20;;;;;;4944887;29;20375;-77
2023/09/02 15:49:57;;;;;;;0.00;0.00;;;25.00;67.70;;;;;;4949265;29;20038;-77
2023/09/02 15:52:23;;;;;;;0.00;0.00;;;25.00;68.40;;;;;;4932858;29;20034;-77
2023/09/02 15:54:48;;;;;;;0.00;0.00;;;25.20;68.10;;;;;;4935236;29;20031;-82
2023/09/02 15:57:16;;;;;;;0.00;0.00;;;25.40;67.70;;;;;;4946144;28;20028;-78
2023/09/02 15:59:41;;;;;;;0.00;0.00;;;25.40;67.20;;;;;;4946378;29;20040;-78
2023/09/02 16:02:07;;;;;;;0.00;0.00;;;25.30;66.60;;;;;;4950538;28;20047;-78
2023/09/02 16:04:33;;;;;;;0.00;0.00;;;25.20;66.80;;;;;;4942952;29;20125;-78
2023/09/02 16:06:58;;;;;;;0.00;0.00;;;25.10;66.90;;;;;;4942266;29;20043;-77
2023/09/02 16:09:24;;;;;;;0.00;0.00;;;24.90;67.80;;;;;;4939806;29;20047;-79
2023/09/02 16:11:52;;;;;;;0.00;0.00;;;25.00;67.70;;;;;;4954519;29;20039;-77
2023/09/02 16:14:17;;;;;;;0.00;0.00;;;24.90;67.80;;;;;;4948292;28;20118;-78
2023/09/02 16:16:43;;;;;;;0.00;0.00;;;24.80;68.00;;;;;;4946271;29;20059;-78
2023/09/02 16:19:09;;;;;;;0.10;0.00;;;24.70;68.40;;;;;;4933999;29;20059;-78
2023/09/02 16:21:34;;;;;;;0.00;0.00;;;24.50;68.80;;;;;;4954462;29;20106;-78
2023/09/02 16:24:00;;;;;;;0.00;0.00;;;24.30;69.00;;;;;;4935542;29;20410;-78
2023/09/02 16:26:26;;;;;;;0.00;0.00;;;24.30;69.80;;;;;;4949805;28;20038;-77
2023/09/02 16:28:51;;;;;;;0.00;0.00;;;24.30;70.00;;;;;;4947912;29;20027;-78
2023/09/02 16:31:17;;;;;;;0.00;0.00;;;24.30;70.20;;;;;;4936195;29;20059;-78
2023/09/02 16:33:43;;;;;;;0.00;0.00;;;24.40;70.20;;;;;;4930666;29;20050;-78
2023/09/02 16:36:09;;;;;;;0.00;0.00;;;24.50;70.00;;;;;;4931752;29;20023;-78
2023/09/02 16:38:34;;;;;;;0.00;0.00;;;24.50;69.90;;;;;;4939151;29;20031;-79
2023/09/02 16:41:04;;;;;;;0.00;0.00;;;24.60;69.50;;;;;;4937383;29;20023;-78
2023/09/02 16:43:30;;;;;;;0.00;0.00;;;24.60;69.50;;;;;;4936160;29;20038;-78
2023/09/02 16:45:55;;;;;;;0.00;0.00;;;24.60;68.90;;;;;;4938756;29;20030;-78
2023/09/02 16:48:23;;;;;;;0.00;0.00;;;24.60;69.10;;;;;;4938508;29;20392;-79
2023/09/02 16:50:49;;;;;;;0.00;0.00;;;24.60;68.80;;;;;;4940889;29;20038;-78
2023/09/02 16:53:18;;;;;;;0.00;0.00;;;24.60;69.00;;;;;;4949431;28;20035;-78
2023/09/02 16:55:45;;;;;;;0.00;0.00;;;24.60;69.10;;;;;;4950698;28;20019;-80
2023/09/02 16:58:17;;;;;;;0.00;0.00;;;24.50;69.10;;;;;;4952720;28;20030;-77
2023/09/02 17:00:43;;;;;;;0.00;0.00;;;24.50;69.40;;;;;;4954136;28;20438;-79
2023/09/02 17:03:09;;;;;;;0.00;0.00;;;24.40;69.50;;;;;;4956060;28;20043;-79
2023/09/02 17:05:36;;;;;;;0.00;0.00;;;24.40;69.70;;;;;;4956705;28;20035;-81
2023/09/02 17:08:05;;;;;;;0.00;0.00;;;24.30;69.30;;;;;;4934934;28;20103;-79
2023/09/02 17:10:32;;;;;;;0.00;0.00;;;24.30;70.00;;;;;;4950206;28;20046;-86
2023/09/02 17:12:58;;;;;;;0.00;0.00;;;24.30;69.80;;;;;;4937135;29;20095;-81
2023/09/02 17:15:35;;;;;;;0.00;0.00;;;24.30;70.20;;;;;;4949806;28;20620;-80
2023/09/02 17:18:01;;;;;;;0.00;0.00;;;24.20;70.60;;;;;;4938968;28;20027;-81
2023/09/02 17:20:29;;;;;;;0.10;0.10;;;24.20;70.90;;;;;;4934552;28;20027;-82